This is the latest recevied weather packets stored in our database for station/object K6ALF. If no packets are shown the sender has not sent any weather packets the latest 10 day(s).
| Time | Temp. | Humidity | Pressure | Rain* | Wind** | Luminosity | Snow |
|---|---|---|---|---|---|---|---|
| 1777935622 | 13.89° C | 90% | 1014.7 hPa | 1.78 mm | - | - | - |
| 1777930220 | 13.89° C | 90% | 1015.2 hPa | 1.27 mm | - | - | - |
| 1777926623 | 13.89° C | 86% | 1015 hPa | 0.51 mm | - | - | - |
| 1777915821 | 14.44° C | 80% | 1015 hPa | 0 mm | - | - | - |
| 1777913122 | 14.44° C | 79% | 1014.7 hPa | 0 mm | - | - | - |
| 1777907785 | 13.89° C | 80% | 1014.1 hPa | 0 mm | - | - | - |
| 1777905023 | 13.33° C | 83% | 1014.3 hPa | 0 mm | - | - | - |
| 1777904121 | 13.33° C | 84% | 1014.2 hPa | 0 mm | - | - | - |
| 1777903223 | 12.78° C | 84% | 1014.3 hPa | 0 mm | - | - | - |
| 1777900520 | 12.78° C | 84% | 1013.6 hPa | 0 mm | - | - | - |
| 1777889721 | 12.78° C | 81% | 1013.5 hPa | 0 mm | - | - | - |
| 1777887020 | 13.33° C | 80% | 1013.6 hPa | 0 mm | - | - | - |
| 1777885220 | 13.33° C | 81% | 1013.6 hPa | 0 mm | - | - | - |
| 1777876221 | 15° C | 74% | 1013.6 hPa | 0 mm | - | - | - |
| 1777873520 | 15° C | 71% | 1013.3 hPa | 0 mm | - | - | - |
| 1777867220 | 17.22° C | 65% | 1012.1 hPa | 0 mm | - | - | - |
| 1777863622 | 18.33° C | 61% | 1011.5 hPa | 0 mm | - | - | - |
| 1777861821 | 19.44° C | 59% | 1011.1 hPa | 0 mm | - | - | - |
| 1777854624 | 20° C | 58% | 1010.7 hPa | 0 mm | - | - | - |
| 1777848321 | 19.44° C | 60% | 1011.4 hPa | 0 mm | - | - | - |
| 1777843853 | 19.44° C | 60% | 1011.4 hPa | 0 mm | - | - | - |
| 1777842921 | 19.44° C | 61% | 1011.5 hPa | 0 mm | - | - | - |
| 1777837555 | 20° C | 60% | 1011.8 hPa | 0 mm | - | - | - |
| 1777833921 | 17.22° C | 70% | 1012.3 hPa | 0 mm | - | - | - |
| 1777832121 | 16.11° C | 72% | 1012 hPa | 0 mm | - | - | - |
* Rain latest hour (hover to see other rain measurements)
** Current wind speed in m/s (hover to see current wind gust speed)